sensor_id;sensor_type;location;lat;lon;timestamp;P1;durP1;ratioP1;P2;durP2;ratioP2
47153;SDS011;32907;41.412;2.164;2022-12-10T00:01:44;5.85;;;4.60;;
47153;SDS011;32907;41.412;2.164;2022-12-10T00:04:12;7.32;;;4.50;;
47153;SDS011;32907;41.412;2.164;2022-12-10T00:06:41;5.97;;;4.88;;
47153;SDS011;32907;41.412;2.164;2022-12-10T00:09:11;6.15;;;4.15;;
47153;SDS011;32907;41.412;2.164;2022-12-10T00:11:41;5.93;;;4.40;;
47153;SDS011;32907;41.412;2.164;2022-12-10T00:14:12;6.88;;;4.78;;
47153;SDS011;32907;41.412;2.164;2022-12-10T00:16:41;7.00;;;5.70;;
47153;SDS011;32907;41.412;2.164;2022-12-10T00:19:09;6.72;;;4.82;;
47153;SDS011;32907;41.412;2.164;2022-12-10T00:21:37;6.50;;;5.18;;
47153;SDS011;32907;41.412;2.164;2022-12-10T00:24:05;6.70;;;5.00;;
47153;SDS011;32907;41.412;2.164;2022-12-10T00:26:35;6.38;;;5.00;;
47153;SDS011;32907;41.412;2.164;2022-12-10T00:29:05;8.30;;;5.93;;
47153;SDS011;32907;41.412;2.164;2022-12-10T00:31:36;6.90;;;5.75;;
47153;SDS011;32907;41.412;2.164;2022-12-10T00:34:07;7.55;;;5.55;;
47153;SDS011;32907;41.412;2.164;2022-12-10T00:36:43;8.45;;;5.97;;
47153;SDS011;32907;41.412;2.164;2022-12-10T00:41:43;6.90;;;5.35;;
47153;SDS011;32907;41.412;2.164;2022-12-10T00:44:13;7.13;;;5.53;;
47153;SDS011;32907;41.412;2.164;2022-12-10T00:46:41;6.85;;;5.50;;
47153;SDS011;32907;41.412;2.164;2022-12-10T00:49:09;8.20;;;6.72;;
47153;SDS011;32907;41.412;2.164;2022-12-10T00:51:37;7.55;;;6.07;;
47153;SDS011;32907;41.412;2.164;2022-12-10T00:54:05;7.43;;;5.82;;
47153;SDS011;32907;41.412;2.164;2022-12-10T00:56:34;7.65;;;5.93;;
47153;SDS011;32907;41.412;2.164;2022-12-10T00:59:02;7.10;;;5.75;;
47153;SDS011;32907;41.412;2.164;2022-12-10T01:01:37;6.43;;;5.57;;
47153;SDS011;32907;41.412;2.164;2022-12-10T01:04:07;6.57;;;5.38;;
47153;SDS011;32907;41.412;2.164;2022-12-10T01:06:46;6.82;;;5.30;;
47153;SDS011;32907;41.412;2.164;2022-12-10T01:09:21;7.40;;;5.35;;
47153;SDS011;32907;41.412;2.164;2022-12-10T01:11:54;5.88;;;4.60;;
47153;SDS011;32907;41.412;2.164;2022-12-10T01:14:24;5.22;;;3.85;;
47153;SDS011;32907;41.412;2.164;2022-12-10T01:16:58;6.35;;;3.97;;
47153;SDS011;32907;41.412;2.164;2022-12-10T01:19:30;4.25;;;3.42;;
47153;SDS011;32907;41.412;2.164;2022-12-10T01:22:01;6.90;;;4.45;;
47153;SDS011;32907;41.412;2.164;2022-12-10T01:24:29;5.75;;;4.63;;
47153;SDS011;32907;41.412;2.164;2022-12-10T01:26:57;5.88;;;4.47;;
47153;SDS011;32907;41.412;2.164;2022-12-10T01:29:27;5.90;;;4.50;;
47153;SDS011;32907;41.412;2.164;2022-12-10T01:31:55;5.53;;;4.35;;
47153;SDS011;32907;41.412;2.164;2022-12-10T01:34:24;6.55;;;5.63;;
47153;SDS011;32907;41.412;2.164;2022-12-10T01:36:55;6.55;;;4.95;;
47153;SDS011;32907;41.412;2.164;2022-12-10T01:39:23;5.93;;;4.70;;
47153;SDS011;32907;41.412;2.164;2022-12-10T01:41:54;6.85;;;4.82;;
47153;SDS011;32907;41.412;2.164;2022-12-10T01:46:51;5.32;;;3.72;;
47153;SDS011;32907;41.412;2.164;2022-12-10T01:49:31;4.65;;;3.70;;
47153;SDS011;32907;41.412;2.164;2022-12-10T01:52:03;5.95;;;4.47;;
47153;SDS011;32907;41.412;2.164;2022-12-10T01:54:35;4.90;;;3.80;;
47153;SDS011;32907;41.412;2.164;2022-12-10T01:57:08;4.78;;;3.85;;
47153;SDS011;32907;41.412;2.164;2022-12-10T01:59:38;6.40;;;4.68;;
47153;SDS011;32907;41.412;2.164;2022-12-10T02:02:11;5.15;;;3.95;;
47153;SDS011;32907;41.412;2.164;2022-12-10T02:07:46;4.90;;;4.00;;
47153;SDS011;32907;41.412;2.164;2022-12-10T02:13:33;5.75;;;4.00;;
47153;SDS011;32907;41.412;2.164;2022-12-10T02:16:14;5.53;;;3.83;;
47153;SDS011;32907;41.412;2.164;2022-12-10T02:18:47;5.45;;;4.00;;
47153;SDS011;32907;41.412;2.164;2022-12-10T02:21:21;6.07;;;3.42;;
47153;SDS011;32907;41.412;2.164;2022-12-10T02:23:54;5.88;;;4.38;;
47153;SDS011;32907;41.412;2.164;2022-12-10T02:26:30;5.28;;;4.35;;
47153;SDS011;32907;41.412;2.164;2022-12-10T02:29:16;5.97;;;4.70;;
47153;SDS011;32907;41.412;2.164;2022-12-10T02:31:53;5.78;;;4.45;;
47153;SDS011;32907;41.412;2.164;2022-12-10T02:34:26;4.43;;;3.78;;
47153;SDS011;32907;41.412;2.164;2022-12-10T02:37:00;4.55;;;3.80;;
47153;SDS011;32907;41.412;2.164;2022-12-10T02:39:36;5.57;;;3.80;;
47153;SDS011;32907;41.412;2.164;2022-12-10T02:42:09;4.45;;;3.00;;
47153;SDS011;32907;41.412;2.164;2022-12-10T02:44:42;3.78;;;2.92;;
47153;SDS011;32907;41.412;2.164;2022-12-10T02:47:13;3.83;;;2.75;;
47153;SDS011;32907;41.412;2.164;2022-12-10T02:49:50;5.20;;;3.13;;
47153;SDS011;32907;41.412;2.164;2022-12-10T02:52:22;4.57;;;2.58;;
47153;SDS011;32907;41.412;2.164;2022-12-10T02:54:53;4.18;;;2.78;;
47153;SDS011;32907;41.412;2.164;2022-12-10T02:57:47;4.00;;;2.75;;
47153;SDS011;32907;41.412;2.164;2022-12-10T03:00:38;3.55;;;2.42;;
47153;SDS011;32907;41.412;2.164;2022-12-10T03:03:26;3.97;;;2.80;;
47153;SDS011;32907;41.412;2.164;2022-12-10T03:08:56;4.22;;;2.60;;
47153;SDS011;32907;41.412;2.164;2022-12-10T03:11:31;4.63;;;2.88;;
47153;SDS011;32907;41.412;2.164;2022-12-10T03:14:00;6.28;;;2.60;;
47153;SDS011;32907;41.412;2.164;2022-12-10T03:16:38;2.97;;;2.30;;
47153;SDS011;32907;41.412;2.164;2022-12-10T03:19:19;4.25;;;1.98;;
47153;SDS011;32907;41.412;2.164;2022-12-10T03:21:49;3.25;;;2.20;;
47153;SDS011;32907;41.412;2.164;2022-12-10T03:24:25;3.13;;;2.00;;
47153;SDS011;32907;41.412;2.164;2022-12-10T03:26:55;2.70;;;1.88;;
47153;SDS011;32907;41.412;2.164;2022-12-10T03:29:31;2.95;;;2.08;;
47153;SDS011;32907;41.412;2.164;2022-12-10T03:32:04;3.10;;;1.88;;
47153;SDS011;32907;41.412;2.164;2022-12-10T03:34:33;3.85;;;2.00;;
47153;SDS011;32907;41.412;2.164;2022-12-10T03:37:02;3.45;;;1.90;;
47153;SDS011;32907;41.412;2.164;2022-12-10T03:39:30;2.88;;;1.88;;
47153;SDS011;32907;41.412;2.164;2022-12-10T03:41:59;3.28;;;2.10;;
47153;SDS011;32907;41.412;2.164;2022-12-10T03:44:31;2.83;;;2.00;;
47153;SDS011;32907;41.412;2.164;2022-12-10T03:47:01;2.13;;;1.60;;
47153;SDS011;32907;41.412;2.164;2022-12-10T03:49:30;3.65;;;1.92;;
47153;SDS011;32907;41.412;2.164;2022-12-10T03:51:58;3.15;;;2.00;;
47153;SDS011;32907;41.412;2.164;2022-12-10T03:54:26;2.40;;;1.90;;
47153;SDS011;32907;41.412;2.164;2022-12-10T03:56:53;2.30;;;1.80;;
47153;SDS011;32907;41.412;2.164;2022-12-10T03:59:21;3.25;;;2.00;;
47153;SDS011;32907;41.412;2.164;2022-12-10T04:01:49;2.95;;;2.00;;
47153;SDS011;32907;41.412;2.164;2022-12-10T04:04:17;3.00;;;1.90;;
47153;SDS011;32907;41.412;2.164;2022-12-10T04:06:45;3.38;;;2.10;;
47153;SDS011;32907;41.412;2.164;2022-12-10T04:09:14;2.38;;;1.77;;
47153;SDS011;32907;41.412;2.164;2022-12-10T04:11:43;4.25;;;2.38;;
47153;SDS011;32907;41.412;2.164;2022-12-10T04:14:12;3.20;;;2.00;;
47153;SDS011;32907;41.412;2.164;2022-12-10T04:16:58;3.70;;;1.58;;
47153;SDS011;32907;41.412;2.164;2022-12-10T04:19:26;2.80;;;2.00;;
47153;SDS011;32907;41.412;2.164;2022-12-10T04:21:54;2.85;;;2.13;;
47153;SDS011;32907;41.412;2.164;2022-12-10T04:24:40;3.60;;;2.05;;
47153;SDS011;32907;41.412;2.164;2022-12-10T04:27:27;2.40;;;2.00;;
47153;SDS011;32907;41.412;2.164;2022-12-10T04:29:57;2.85;;;2.00;;
47153;SDS011;32907;41.412;2.164;2022-12-10T04:32:27;2.88;;;1.90;;
47153;SDS011;32907;41.412;2.164;2022-12-10T04:34:56;3.13;;;2.03;;
47153;SDS011;32907;41.412;2.164;2022-12-10T04:37:26;3.08;;;2.00;;
47153;SDS011;32907;41.412;2.164;2022-12-10T04:39:55;3.58;;;2.30;;
47153;SDS011;32907;41.412;2.164;2022-12-10T04:42:23;2.97;;;2.20;;
47153;SDS011;32907;41.412;2.164;2022-12-10T04:44:51;4.30;;;2.42;;
47153;SDS011;32907;41.412;2.164;2022-12-10T04:47:18;3.38;;;2.50;;
47153;SDS011;32907;41.412;2.164;2022-12-10T04:49:46;3.50;;;2.88;;
47153;SDS011;32907;41.412;2.164;2022-12-10T04:52:14;3.30;;;2.28;;
47153;SDS011;32907;41.412;2.164;2022-12-10T04:54:44;3.50;;;2.53;;
47153;SDS011;32907;41.412;2.164;2022-12-10T04:57:12;5.28;;;2.40;;
47153;SDS011;32907;41.412;2.164;2022-12-10T04:59:41;3.47;;;2.30;;
47153;SDS011;32907;41.412;2.164;2022-12-10T05:02:08;3.53;;;2.65;;
47153;SDS011;32907;41.412;2.164;2022-12-10T05:04:36;4.72;;;2.90;;
47153;SDS011;32907;41.412;2.164;2022-12-10T05:07:04;3.95;;;2.45;;
47153;SDS011;32907;41.412;2.164;2022-12-10T05:09:32;3.90;;;2.80;;
47153;SDS011;32907;41.412;2.164;2022-12-10T05:11:59;3.45;;;2.47;;
47153;SDS011;32907;41.412;2.164;2022-12-10T05:14:27;3.40;;;2.75;;
47153;SDS011;32907;41.412;2.164;2022-12-10T05:16:55;4.15;;;2.85;;
47153;SDS011;32907;41.412;2.164;2022-12-10T05:19:23;3.97;;;2.92;;
47153;SDS011;32907;41.412;2.164;2022-12-10T05:21:53;3.90;;;2.85;;
47153;SDS011;32907;41.412;2.164;2022-12-10T05:24:39;3.38;;;2.63;;
47153;SDS011;32907;41.412;2.164;2022-12-10T05:27:07;5.22;;;2.72;;
47153;SDS011;32907;41.412;2.164;2022-12-10T05:29:34;3.22;;;2.45;;
47153;SDS011;32907;41.412;2.164;2022-12-10T05:32:02;3.42;;;2.65;;
47153;SDS011;32907;41.412;2.164;2022-12-10T05:34:31;3.50;;;2.70;;
47153;SDS011;32907;41.412;2.164;2022-12-10T05:36:59;4.25;;;2.97;;
47153;SDS011;32907;41.412;2.164;2022-12-10T05:39:27;3.35;;;2.90;;
47153;SDS011;32907;41.412;2.164;2022-12-10T05:41:55;4.70;;;3.00;;
47153;SDS011;32907;41.412;2.164;2022-12-10T05:44:22;4.20;;;3.17;;
47153;SDS011;32907;41.412;2.164;2022-12-10T05:46:50;4.35;;;3.00;;
47153;SDS011;32907;41.412;2.164;2022-12-10T05:49:19;5.75;;;3.38;;
47153;SDS011;32907;41.412;2.164;2022-12-10T05:51:47;3.70;;;2.97;;
47153;SDS011;32907;41.412;2.164;2022-12-10T05:54:15;3.53;;;3.00;;
47153;SDS011;32907;41.412;2.164;2022-12-10T05:56:42;4.15;;;2.80;;
47153;SDS011;32907;41.412;2.164;2022-12-10T05:59:10;4.65;;;3.10;;
47153;SDS011;32907;41.412;2.164;2022-12-10T06:01:43;4.75;;;2.97;;
47153;SDS011;32907;41.412;2.164;2022-12-10T06:04:10;4.15;;;3.05;;
47153;SDS011;32907;41.412;2.164;2022-12-10T06:06:39;3.38;;;2.65;;
47153;SDS011;32907;41.412;2.164;2022-12-10T06:09:09;4.00;;;2.50;;
47153;SDS011;32907;41.412;2.164;2022-12-10T06:11:38;4.18;;;2.92;;
47153;SDS011;32907;41.412;2.164;2022-12-10T06:14:06;5.28;;;2.90;;
47153;SDS011;32907;41.412;2.164;2022-12-10T06:16:34;3.55;;;2.40;;
47153;SDS011;32907;41.412;2.164;2022-12-10T06:19:02;4.20;;;2.92;;
47153;SDS011;32907;41.412;2.164;2022-12-10T06:21:29;3.55;;;2.63;;
47153;SDS011;32907;41.412;2.164;2022-12-10T06:23:57;3.22;;;2.63;;
47153;SDS011;32907;41.412;2.164;2022-12-10T06:26:25;3.22;;;2.60;;
47153;SDS011;32907;41.412;2.164;2022-12-10T06:28:53;3.08;;;2.22;;
47153;SDS011;32907;41.412;2.164;2022-12-10T06:31:21;3.42;;;2.42;;
47153;SDS011;32907;41.412;2.164;2022-12-10T06:33:50;2.90;;;2.50;;
47153;SDS011;32907;41.412;2.164;2022-12-10T06:36:18;4.60;;;3.30;;
47153;SDS011;32907;41.412;2.164;2022-12-10T06:38:46;3.83;;;3.00;;
47153;SDS011;32907;41.412;2.164;2022-12-10T06:41:16;5.50;;;3.25;;
47153;SDS011;32907;41.412;2.164;2022-12-10T06:43:47;5.43;;;3.95;;
47153;SDS011;32907;41.412;2.164;2022-12-10T06:46:17;4.57;;;4.07;;
47153;SDS011;32907;41.412;2.164;2022-12-10T06:48:46;5.28;;;3.95;;
47153;SDS011;32907;41.412;2.164;2022-12-10T06:51:14;5.65;;;4.35;;
47153;SDS011;32907;41.412;2.164;2022-12-10T06:53:44;7.32;;;5.05;;
47153;SDS011;32907;41.412;2.164;2022-12-10T06:56:13;6.88;;;5.15;;
47153;SDS011;32907;41.412;2.164;2022-12-10T06:58:43;5.13;;;4.43;;
47153;SDS011;32907;41.412;2.164;2022-12-10T07:01:13;5.82;;;4.03;;
47153;SDS011;32907;41.412;2.164;2022-12-10T07:03:42;5.00;;;4.20;;
47153;SDS011;32907;41.412;2.164;2022-12-10T07:06:11;6.15;;;4.45;;
47153;SDS011;32907;41.412;2.164;2022-12-10T07:08:39;4.55;;;3.85;;
47153;SDS011;32907;41.412;2.164;2022-12-10T07:11:08;5.03;;;4.05;;
47153;SDS011;32907;41.412;2.164;2022-12-10T07:13:38;5.05;;;4.22;;
47153;SDS011;32907;41.412;2.164;2022-12-10T07:16:20;5.50;;;4.30;;
47153;SDS011;32907;41.412;2.164;2022-12-10T07:18:49;4.82;;;3.70;;
47153;SDS011;32907;41.412;2.164;2022-12-10T07:23:48;4.38;;;3.97;;
47153;SDS011;32907;41.412;2.164;2022-12-10T07:26:17;6.70;;;5.22;;
47153;SDS011;32907;41.412;2.164;2022-12-10T07:28:45;7.22;;;6.25;;
47153;SDS011;32907;41.412;2.164;2022-12-10T07:31:20;6.28;;;5.65;;
47153;SDS011;32907;41.412;2.164;2022-12-10T07:33:53;8.05;;;6.22;;
47153;SDS011;32907;41.412;2.164;2022-12-10T07:36:22;7.20;;;6.45;;
47153;SDS011;32907;41.412;2.164;2022-12-10T07:38:53;6.97;;;5.97;;
47153;SDS011;32907;41.412;2.164;2022-12-10T07:41:22;8.00;;;5.90;;
47153;SDS011;32907;41.412;2.164;2022-12-10T07:43:51;6.07;;;5.20;;
47153;SDS011;32907;41.412;2.164;2022-12-10T07:46:24;6.50;;;5.10;;
47153;SDS011;32907;41.412;2.164;2022-12-10T07:48:54;5.55;;;4.70;;
47153;SDS011;32907;41.412;2.164;2022-12-10T07:51:22;5.40;;;4.50;;
47153;SDS011;32907;41.412;2.164;2022-12-10T07:53:51;4.88;;;4.22;;
47153;SDS011;32907;41.412;2.164;2022-12-10T07:56:21;6.15;;;4.45;;
47153;SDS011;32907;41.412;2.164;2022-12-10T07:58:50;5.20;;;4.53;;
47153;SDS011;32907;41.412;2.164;2022-12-10T08:01:21;6.55;;;4.90;;
47153;SDS011;32907;41.412;2.164;2022-12-10T08:03:52;6.32;;;4.93;;
47153;SDS011;32907;41.412;2.164;2022-12-10T08:06:20;5.97;;;4.93;;
47153;SDS011;32907;41.412;2.164;2022-12-10T08:08:48;7.05;;;5.07;;
47153;SDS011;32907;41.412;2.164;2022-12-10T08:11:17;7.18;;;5.05;;
47153;SDS011;32907;41.412;2.164;2022-12-10T08:13:46;7.07;;;5.68;;
47153;SDS011;32907;41.412;2.164;2022-12-10T08:16:23;10.90;;;7.50;;
47153;SDS011;32907;41.412;2.164;2022-12-10T08:18:56;9.95;;;7.88;;
47153;SDS011;32907;41.412;2.164;2022-12-10T08:21:26;9.50;;;7.53;;
47153;SDS011;32907;41.412;2.164;2022-12-10T08:23:55;7.38;;;6.32;;
47153;SDS011;32907;41.412;2.164;2022-12-10T08:26:25;8.50;;;6.85;;
47153;SDS011;32907;41.412;2.164;2022-12-10T08:28:55;7.95;;;6.40;;
47153;SDS011;32907;41.412;2.164;2022-12-10T08:31:24;7.95;;;5.70;;
47153;SDS011;32907;41.412;2.164;2022-12-10T08:33:53;8.07;;;5.65;;
47153;SDS011;32907;41.412;2.164;2022-12-10T08:36:21;6.35;;;5.28;;
47153;SDS011;32907;41.412;2.164;2022-12-10T08:38:49;6.88;;;5.00;;
47153;SDS011;32907;41.412;2.164;2022-12-10T08:41:18;7.45;;;5.00;;
47153;SDS011;32907;41.412;2.164;2022-12-10T08:43:48;6.00;;;4.63;;
47153;SDS011;32907;41.412;2.164;2022-12-10T08:46:20;5.55;;;4.15;;
47153;SDS011;32907;41.412;2.164;2022-12-10T08:48:48;4.50;;;3.67;;
47153;SDS011;32907;41.412;2.164;2022-12-10T08:51:17;5.20;;;4.18;;
47153;SDS011;32907;41.412;2.164;2022-12-10T08:53:45;4.95;;;3.80;;
47153;SDS011;32907;41.412;2.164;2022-12-10T08:56:13;5.40;;;4.03;;
47153;SDS011;32907;41.412;2.164;2022-12-10T08:58:41;4.82;;;3.70;;
47153;SDS011;32907;41.412;2.164;2022-12-10T09:01:11;8.13;;;4.63;;
47153;SDS011;32907;41.412;2.164;2022-12-10T09:03:41;4.97;;;4.38;;
47153;SDS011;32907;41.412;2.164;2022-12-10T09:06:11;7.88;;;5.22;;
47153;SDS011;32907;41.412;2.164;2022-12-10T09:08:40;6.43;;;4.80;;
47153;SDS011;32907;41.412;2.164;2022-12-10T09:11:09;7.95;;;4.75;;
47153;SDS011;32907;41.412;2.164;2022-12-10T09:13:40;5.88;;;4.90;;
47153;SDS011;32907;41.412;2.164;2022-12-10T09:16:09;6.47;;;4.93;;
47153;SDS011;32907;41.412;2.164;2022-12-10T09:18:37;5.55;;;4.95;;
47153;SDS011;32907;41.412;2.164;2022-12-10T09:21:05;5.75;;;4.55;;
47153;SDS011;32907;41.412;2.164;2022-12-10T09:23:35;6.28;;;4.90;;
47153;SDS011;32907;41.412;2.164;2022-12-10T09:26:06;6.88;;;4.45;;
47153;SDS011;32907;41.412;2.164;2022-12-10T09:28:36;9.68;;;5.18;;
47153;SDS011;32907;41.412;2.164;2022-12-10T09:31:04;9.65;;;5.97;;
47153;SDS011;32907;41.412;2.164;2022-12-10T09:33:41;10.25;;;6.13;;
47153;SDS011;32907;41.412;2.164;2022-12-10T09:36:10;6.88;;;4.93;;
47153;SDS011;32907;41.412;2.164;2022-12-10T09:38:40;6.30;;;4.68;;
47153;SDS011;32907;41.412;2.164;2022-12-10T09:49:21;4.80;;;3.72;;
47153;SDS011;32907;41.412;2.164;2022-12-10T09:51:59;5.50;;;3.30;;
47153;SDS011;32907;41.412;2.164;2022-12-10T09:54:30;5.15;;;3.60;;
47153;SDS011;32907;41.412;2.164;2022-12-10T09:57:02;5.78;;;3.58;;
47153;SDS011;32907;41.412;2.164;2022-12-10T09:59:47;4.03;;;2.65;;
47153;SDS011;32907;41.412;2.164;2022-12-10T10:02:19;3.80;;;2.50;;
47153;SDS011;32907;41.412;2.164;2022-12-10T10:07:36;6.72;;;5.55;;
47153;SDS011;32907;41.412;2.164;2022-12-10T10:10:28;8.93;;;7.22;;
47153;SDS011;32907;41.412;2.164;2022-12-10T10:15:37;8.38;;;6.88;;
47153;SDS011;32907;41.412;2.164;2022-12-10T10:18:17;9.35;;;6.13;;
47153;SDS011;32907;41.412;2.164;2022-12-10T10:20:59;6.15;;;5.45;;
47153;SDS011;32907;41.412;2.164;2022-12-10T10:23:28;6.28;;;4.60;;
47153;SDS011;32907;41.412;2.164;2022-12-10T10:25:56;5.40;;;4.30;;
47153;SDS011;32907;41.412;2.164;2022-12-10T10:28:23;5.25;;;4.00;;
47153;SDS011;32907;41.412;2.164;2022-12-10T10:30:51;4.55;;;3.20;;
47153;SDS011;32907;41.412;2.164;2022-12-10T10:33:23;5.07;;;2.80;;
47153;SDS011;32907;41.412;2.164;2022-12-10T10:35:55;5.15;;;2.80;;
47153;SDS011;32907;41.412;2.164;2022-12-10T10:38:28;3.75;;;2.50;;
47153;SDS011;32907;41.412;2.164;2022-12-10T10:40:58;5.00;;;2.60;;
47153;SDS011;32907;41.412;2.164;2022-12-10T10:43:33;3.97;;;2.20;;
47153;SDS011;32907;41.412;2.164;2022-12-10T10:46:20;3.78;;;1.90;;
47153;SDS011;32907;41.412;2.164;2022-12-10T10:48:51;6.10;;;2.20;;
47153;SDS011;32907;41.412;2.164;2022-12-10T10:51:19;8.88;;;2.42;;
47153;SDS011;32907;41.412;2.164;2022-12-10T10:53:51;2.70;;;1.80;;
47153;SDS011;32907;41.412;2.164;2022-12-10T10:56:21;4.45;;;1.63;;
47153;SDS011;32907;41.412;2.164;2022-12-10T10:59:06;3.40;;;1.70;;
47153;SDS011;32907;41.412;2.164;2022-12-10T11:01:51;5.05;;;2.42;;
47153;SDS011;32907;41.412;2.164;2022-12-10T11:05:08;5.88;;;3.90;;
47153;SDS011;32907;41.412;2.164;2022-12-10T11:07:24;6.40;;;3.67;;
47153;SDS011;32907;41.412;2.164;2022-12-10T11:10:00;5.30;;;2.55;;
47153;SDS011;32907;41.412;2.164;2022-12-10T11:12:34;12.10;;;2.70;;
47153;SDS011;32907;41.412;2.164;2022-12-10T11:15:30;5.32;;;2.00;;
47153;SDS011;32907;41.412;2.164;2022-12-10T11:20:27;7.32;;;3.50;;
47153;SDS011;32907;41.412;2.164;2022-12-10T11:23:01;6.25;;;3.05;;
47153;SDS011;32907;41.412;2.164;2022-12-10T11:39:33;5.55;;;2.85;;
47153;SDS011;32907;41.412;2.164;2022-12-10T11:50:30;8.15;;;5.38;;
47153;SDS011;32907;41.412;2.164;2022-12-10T11:53:12;10.85;;;7.60;;
47153;SDS011;32907;41.412;2.164;2022-12-10T11:59:14;7.40;;;5.22;;
47153;SDS011;32907;41.412;2.164;2022-12-10T12:07:42;8.98;;;4.45;;
47153;SDS011;32907;41.412;2.164;2022-12-10T12:13:41;7.70;;;2.85;;
47153;SDS011;32907;41.412;2.164;2022-12-10T12:16:17;6.88;;;3.08;;
47153;SDS011;32907;41.412;2.164;2022-12-10T12:18:54;8.13;;;5.22;;
47153;SDS011;32907;41.412;2.164;2022-12-10T12:21:27;12.32;;;6.00;;
47153;SDS011;32907;41.412;2.164;2022-12-10T12:23:59;4.03;;;1.60;;
47153;SDS011;32907;41.412;2.164;2022-12-10T12:32:17;7.15;;;3.78;;
47153;SDS011;32907;41.412;2.164;2022-12-10T12:40:48;6.22;;;3.35;;
47153;SDS011;32907;41.412;2.164;2022-12-10T12:46:05;5.15;;;3.25;;
47153;SDS011;32907;41.412;2.164;2022-12-10T12:48:48;4.60;;;3.28;;
47153;SDS011;32907;41.412;2.164;2022-12-10T12:51:33;4.50;;;2.92;;
47153;SDS011;32907;41.412;2.164;2022-12-10T12:54:09;4.75;;;2.80;;
47153;SDS011;32907;41.412;2.164;2022-12-10T12:59:36;7.20;;;3.83;;
47153;SDS011;32907;41.412;2.164;2022-12-10T13:05:28;10.55;;;5.32;;
47153;SDS011;32907;41.412;2.164;2022-12-10T13:13:29;14.23;;;7.78;;
47153;SDS011;32907;41.412;2.164;2022-12-10T13:32:17;87.65;;;50.03;;
47153;SDS011;32907;41.412;2.164;2022-12-10T13:35:41;66.78;;;38.05;;
47153;SDS011;32907;41.412;2.164;2022-12-10T13:40:37;27.73;;;18.83;;
47153;SDS011;32907;41.412;2.164;2022-12-10T13:46:23;16.50;;;12.77;;
47153;SDS011;32907;41.412;2.164;2022-12-10T13:48:52;24.00;;;16.25;;
47153;SDS011;32907;41.412;2.164;2022-12-10T13:54:29;61.88;;;36.03;;
47153;SDS011;32907;41.412;2.164;2022-12-10T13:58:00;71.93;;;35.05;;
47153;SDS011;32907;41.412;2.164;2022-12-10T14:06:52;18.08;;;10.45;;
47153;SDS011;32907;41.412;2.164;2022-12-10T14:14:40;10.10;;;5.40;;
47153;SDS011;32907;41.412;2.164;2022-12-10T14:17:14;6.90;;;4.75;;
47153;SDS011;32907;41.412;2.164;2022-12-10T14:19:45;6.75;;;4.88;;
47153;SDS011;32907;41.412;2.164;2022-12-10T14:22:16;8.50;;;4.82;;
47153;SDS011;32907;41.412;2.164;2022-12-10T14:25:10;7.13;;;4.35;;
47153;SDS011;32907;41.412;2.164;2022-12-10T14:27:41;5.10;;;3.65;;
47153;SDS011;32907;41.412;2.164;2022-12-10T14:32:54;5.20;;;3.53;;
47153;SDS011;32907;41.412;2.164;2022-12-10T14:35:25;4.88;;;3.40;;
47153;SDS011;32907;41.412;2.164;2022-12-10T14:37:57;5.50;;;3.63;;
47153;SDS011;32907;41.412;2.164;2022-12-10T14:40:45;5.85;;;4.75;;
47153;SDS011;32907;41.412;2.164;2022-12-10T14:43:47;6.90;;;4.50;;
47153;SDS011;32907;41.412;2.164;2022-12-10T14:46:19;7.07;;;4.13;;
47153;SDS011;32907;41.412;2.164;2022-12-10T14:48:51;7.28;;;4.30;;
47153;SDS011;32907;41.412;2.164;2022-12-10T14:51:23;6.10;;;4.20;;
47153;SDS011;32907;41.412;2.164;2022-12-10T14:54:04;5.40;;;3.78;;
47153;SDS011;32907;41.412;2.164;2022-12-10T14:56:51;5.78;;;3.88;;
47153;SDS011;32907;41.412;2.164;2022-12-10T14:59:21;4.47;;;3.00;;
47153;SDS011;32907;41.412;2.164;2022-12-10T15:02:12;5.03;;;3.28;;
47153;SDS011;32907;41.412;2.164;2022-12-10T15:04:47;4.13;;;3.43;;
47153;SDS011;32907;41.412;2.164;2022-12-10T15:07:20;6.47;;;3.28;;
47153;SDS011;32907;41.412;2.164;2022-12-10T15:09:53;5.38;;;3.47;;
47153;SDS011;32907;41.412;2.164;2022-12-10T15:12:33;6.05;;;3.50;;
47153;SDS011;32907;41.412;2.164;2022-12-10T15:15:19;7.13;;;4.00;;
47153;SDS011;32907;41.412;2.164;2022-12-10T15:18:08;4.28;;;3.17;;
47153;SDS011;32907;41.412;2.164;2022-12-10T15:20:43;6.63;;;3.72;;
47153;SDS011;32907;41.412;2.164;2022-12-10T15:23:19;4.97;;;3.08;;
47153;SDS011;32907;41.412;2.164;2022-12-10T15:26:15;4.10;;;3.03;;
47153;SDS011;32907;41.412;2.164;2022-12-10T15:28:43;6.22;;;3.42;;
47153;SDS011;32907;41.412;2.164;2022-12-10T15:31:13;4.38;;;3.20;;
47153;SDS011;32907;41.412;2.164;2022-12-10T15:36:33;4.45;;;2.97;;
47153;SDS011;32907;41.412;2.164;2022-12-10T15:39:17;5.20;;;3.28;;
47153;SDS011;32907;41.412;2.164;2022-12-10T15:41:49;4.55;;;3.30;;
47153;SDS011;32907;41.412;2.164;2022-12-10T15:47:15;4.45;;;2.97;;
47153;SDS011;32907;41.412;2.164;2022-12-10T15:49:48;5.38;;;3.42;;
47153;SDS011;32907;41.412;2.164;2022-12-10T15:52:25;6.40;;;3.90;;
47153;SDS011;32907;41.412;2.164;2022-12-10T15:54:55;5.88;;;3.67;;
47153;SDS011;32907;41.412;2.164;2022-12-10T15:57:34;5.20;;;3.20;;
47153;SDS011;32907;41.412;2.164;2022-12-10T16:00:05;3.50;;;2.63;;
47153;SDS011;32907;41.412;2.164;2022-12-10T16:05:18;5.20;;;3.08;;
47153;SDS011;32907;41.412;2.164;2022-12-10T16:07:54;4.63;;;2.60;;
47153;SDS011;32907;41.412;2.164;2022-12-10T16:10:24;3.75;;;2.30;;
47153;SDS011;32907;41.412;2.164;2022-12-10T16:13:03;3.70;;;2.38;;
47153;SDS011;32907;41.412;2.164;2022-12-10T16:15:40;4.22;;;2.42;;
47153;SDS011;32907;41.412;2.164;2022-12-10T16:18:15;4.47;;;2.88;;
47153;SDS011;32907;41.412;2.164;2022-12-10T16:20:43;5.03;;;2.90;;
47153;SDS011;32907;41.412;2.164;2022-12-10T16:23:12;4.50;;;2.65;;
47153;SDS011;32907;41.412;2.164;2022-12-10T16:25:41;4.07;;;2.47;;
47153;SDS011;32907;41.412;2.164;2022-12-10T16:28:12;4.90;;;2.97;;
47153;SDS011;32907;41.412;2.164;2022-12-10T16:30:44;5.78;;;3.30;;
47153;SDS011;32907;41.412;2.164;2022-12-10T16:33:15;4.90;;;3.30;;
47153;SDS011;32907;41.412;2.164;2022-12-10T16:35:45;4.97;;;3.30;;
47153;SDS011;32907;41.412;2.164;2022-12-10T16:38:14;4.63;;;3.38;;
47153;SDS011;32907;41.412;2.164;2022-12-10T16:40:42;5.72;;;3.80;;
47153;SDS011;32907;41.412;2.164;2022-12-10T16:43:15;4.60;;;3.22;;
47153;SDS011;32907;41.412;2.164;2022-12-10T16:45:44;5.28;;;2.90;;
47153;SDS011;32907;41.412;2.164;2022-12-10T16:48:13;3.33;;;2.53;;
47153;SDS011;32907;41.412;2.164;2022-12-10T16:50:41;3.95;;;2.35;;
47153;SDS011;32907;41.412;2.164;2022-12-10T16:53:17;2.45;;;1.98;;
47153;SDS011;32907;41.412;2.164;2022-12-10T16:55:49;3.58;;;1.70;;
47153;SDS011;32907;41.412;2.164;2022-12-10T16:58:17;2.90;;;1.50;;
47153;SDS011;32907;41.412;2.164;2022-12-10T17:00:47;2.08;;;1.50;;
47153;SDS011;32907;41.412;2.164;2022-12-10T17:03:18;2.70;;;1.85;;
47153;SDS011;32907;41.412;2.164;2022-12-10T17:05:53;2.63;;;1.70;;
47153;SDS011;32907;41.412;2.164;2022-12-10T17:08:27;2.67;;;1.90;;
47153;SDS011;32907;41.412;2.164;2022-12-10T17:10:56;4.28;;;2.20;;
47153;SDS011;32907;41.412;2.164;2022-12-10T17:13:44;3.75;;;1.80;;
47153;SDS011;32907;41.412;2.164;2022-12-10T17:16:13;2.83;;;1.83;;
47153;SDS011;32907;41.412;2.164;2022-12-10T17:18:47;2.60;;;1.70;;
47153;SDS011;32907;41.412;2.164;2022-12-10T17:21:15;2.42;;;1.67;;
47153;SDS011;32907;41.412;2.164;2022-12-10T17:23:43;2.20;;;1.52;;
47153;SDS011;32907;41.412;2.164;2022-12-10T17:26:17;2.30;;;1.80;;
47153;SDS011;32907;41.412;2.164;2022-12-10T17:28:51;2.33;;;1.45;;
47153;SDS011;32907;41.412;2.164;2022-12-10T17:31:19;2.38;;;1.20;;
47153;SDS011;32907;41.412;2.164;2022-12-10T17:33:47;1.98;;;1.10;;
47153;SDS011;32907;41.412;2.164;2022-12-10T17:36:18;2.10;;;1.15;;
47153;SDS011;32907;41.412;2.164;2022-12-10T17:38:46;3.05;;;1.40;;
47153;SDS011;32907;41.412;2.164;2022-12-10T17:41:14;3.17;;;1.73;;